createdAt,value
2022-10-09T00:01:29.506Z,8.40
2022-10-09T00:04:00.053Z,8.40
2022-10-09T00:06:31.418Z,8.30
2022-10-09T00:09:01.779Z,8.20
2022-10-09T00:11:32.409Z,8.20
2022-10-09T00:14:01.442Z,8.30
2022-10-09T00:16:30.152Z,8.30
2022-10-09T00:19:00.288Z,8.40
2022-10-09T00:21:32.034Z,8.40
2022-10-09T00:24:04.350Z,8.30
2022-10-09T00:26:32.882Z,8.20
2022-10-09T00:29:00.957Z,8.30
2022-10-09T00:31:29.696Z,8.40
2022-10-09T00:33:59.839Z,8.20
2022-10-09T00:36:28.299Z,8.30
2022-10-09T00:38:57.577Z,8.30
2022-10-09T00:41:28.730Z,8.20
2022-10-09T00:43:59.714Z,8.20
2022-10-09T00:46:34.951Z,8.20
2022-10-09T00:49:15.939Z,8.20
2022-10-09T00:51:47.488Z,8.20
2022-10-09T00:54:19.520Z,8.10
2022-10-09T00:56:47.727Z,8.10
2022-10-09T00:59:16.603Z,8.10
2022-10-09T01:01:45.395Z,8.10
2022-10-09T01:04:15.330Z,8.00
2022-10-09T01:07:01.092Z,8.00
2022-10-09T01:09:40.598Z,8.00
2022-10-09T01:12:17.773Z,8.00
2022-10-09T01:14:53.566Z,7.90
2022-10-09T01:17:29.562Z,8.00
2022-10-09T01:20:30.779Z,8.10
2022-10-09T01:23:34.086Z,8.00
2022-10-09T01:26:17.618Z,8.00
2022-10-09T01:28:52.425Z,8.00
2022-10-09T01:31:22.069Z,7.90
2022-10-09T01:33:50.897Z,7.90
2022-10-09T01:36:21.641Z,7.90
2022-10-09T01:38:50.703Z,7.80
2022-10-09T01:41:19.452Z,7.80
2022-10-09T01:43:49.357Z,7.90
2022-10-09T01:46:24.165Z,7.80
2022-10-09T01:49:04.506Z,7.80
2022-10-09T01:51:42.609Z,7.70
2022-10-09T01:54:13.697Z,7.60
2022-10-09T01:56:46.692Z,7.70
2022-10-09T01:59:18.895Z,7.60
2022-10-09T02:01:51.634Z,7.60
2022-10-09T02:04:20.767Z,7.70
2022-10-09T02:06:49.536Z,7.50
2022-10-09T02:09:19.122Z,7.60
2022-10-09T02:11:52.258Z,7.60
2022-10-09T02:14:21.802Z,7.60
2022-10-09T02:16:56.183Z,7.70
2022-10-09T02:19:31.337Z,7.70
2022-10-09T02:22:06.943Z,7.60
2022-10-09T02:24:35.274Z,7.60
2022-10-09T02:27:04.382Z,7.60
2022-10-09T02:29:34.451Z,7.50
2022-10-09T02:32:02.433Z,7.50
2022-10-09T02:34:30.436Z,7.50
2022-10-09T02:36:58.539Z,7.50
2022-10-09T02:39:26.621Z,7.50
2022-10-09T02:41:54.641Z,7.40
2022-10-09T02:44:22.652Z,7.50
2022-10-09T02:46:52.015Z,7.50
2022-10-09T02:49:20.136Z,7.50
2022-10-09T02:51:48.576Z,7.50
2022-10-09T02:54:16.575Z,7.50
2022-10-09T02:56:44.601Z,7.50
2022-10-09T02:59:12.530Z,7.50
2022-10-09T03:01:40.975Z,7.40
2022-10-09T03:04:10.356Z,7.40
2022-10-09T03:06:38.367Z,7.40
2022-10-09T03:09:06.371Z,7.40
2022-10-09T03:11:34.376Z,7.40
2022-10-09T03:14:02.571Z,7.40
2022-10-09T03:16:30.670Z,7.40
2022-10-09T03:19:00.120Z,7.40
2022-10-09T03:21:30.350Z,7.40
2022-10-09T03:23:58.666Z,7.40
2022-10-09T03:26:28.774Z,7.40
2022-10-09T03:28:57.260Z,7.40
2022-10-09T03:31:50.725Z,7.30
2022-10-09T03:34:15.997Z,7.30
2022-10-09T03:36:45.295Z,7.30
2022-10-09T03:39:13.753Z,7.30
2022-10-09T03:41:41.744Z,7.30
2022-10-09T03:44:09.729Z,7.30
2022-10-09T03:46:38.051Z,7.20
2022-10-09T03:49:06.166Z,7.20
2022-10-09T03:51:34.241Z,7.20
2022-10-09T03:54:03.638Z,7.20
2022-10-09T03:56:31.752Z,7.20
2022-10-09T03:58:59.704Z,7.10
2022-10-09T04:01:27.794Z,7.20
2022-10-09T04:03:55.783Z,7.20
2022-10-09T04:06:23.748Z,7.20
2022-10-09T04:08:51.671Z,7.20
2022-10-09T04:11:21.212Z,7.10
2022-10-09T04:13:49.159Z,7.10
2022-10-09T04:16:17.174Z,7.20
2022-10-09T04:18:47.688Z,7.10
2022-10-09T04:21:15.655Z,7.10
2022-10-09T04:23:43.697Z,7.10
2022-10-09T04:26:13.963Z,7.10
2022-10-09T04:28:43.593Z,7.10
2022-10-09T04:31:11.754Z,7.10
2022-10-09T04:33:39.755Z,7.20
2022-10-09T04:36:08.356Z,7.20
2022-10-09T04:38:36.387Z,7.20
2022-10-09T04:41:07.825Z,7.20
2022-10-09T04:43:36.471Z,7.10
2022-10-09T04:46:12.169Z,7.20
2022-10-09T04:48:41.110Z,7.10
2022-10-09T04:51:10.755Z,7.20
2022-10-09T04:53:40.270Z,7.10
2022-10-09T04:56:10.801Z,7.20
2022-10-09T04:58:40.595Z,7.20
2022-10-09T05:01:12.518Z,7.10
2022-10-09T05:03:40.840Z,7.20
2022-10-09T05:06:11.477Z,7.10
2022-10-09T05:08:40.676Z,7.10
2022-10-09T05:11:11.767Z,7.10
2022-10-09T05:13:42.291Z,7.10
2022-10-09T05:16:14.613Z,7.00
2022-10-09T05:18:44.085Z,6.90
2022-10-09T05:21:12.270Z,6.90
2022-10-09T05:23:40.380Z,6.80
2022-10-09T05:26:12.758Z,6.80
2022-10-09T05:28:41.128Z,6.80
2022-10-09T05:31:18.519Z,6.90
2022-10-09T05:33:46.680Z,6.90
2022-10-09T05:36:15.127Z,6.90
2022-10-09T05:38:43.177Z,6.90
2022-10-09T05:41:13.968Z,6.90
2022-10-09T05:43:44.442Z,6.90
2022-10-09T05:46:16.311Z,6.90
2022-10-09T05:48:47.775Z,6.90
2022-10-09T05:51:19.156Z,6.90
2022-10-09T05:53:48.641Z,6.90
2022-10-09T05:56:20.734Z,7.00
2022-10-09T05:58:53.345Z,7.10
2022-10-09T06:01:26.120Z,7.10
2022-10-09T06:03:56.865Z,7.10
2022-10-09T06:06:28.351Z,7.10
2022-10-09T06:08:57.346Z,7.20
2022-10-09T06:11:28.581Z,7.20
2022-10-09T06:13:57.320Z,7.20
2022-10-09T06:16:31.357Z,7.30
2022-10-09T06:19:00.480Z,7.30
2022-10-09T06:21:29.444Z,7.40
2022-10-09T06:24:01.247Z,7.40
2022-10-09T06:26:31.491Z,7.50
2022-10-09T06:29:01.484Z,7.50
2022-10-09T06:31:33.050Z,7.50
2022-10-09T06:34:03.110Z,7.60
2022-10-09T06:36:34.428Z,7.70
2022-10-09T06:39:06.876Z,7.70
2022-10-09T06:41:36.969Z,7.80
2022-10-09T06:44:07.768Z,7.90
2022-10-09T06:46:39.562Z,8.00
2022-10-09T06:49:10.211Z,8.00
2022-10-09T06:51:38.327Z,8.10
2022-10-09T06:54:12.114Z,8.20
2022-10-09T06:56:40.310Z,8.30
2022-10-09T06:59:08.883Z,8.50
2022-10-09T07:01:38.369Z,8.70
2022-10-09T07:04:10.443Z,8.80
2022-10-09T07:06:41.816Z,9.10
2022-10-09T07:09:13.577Z,10.30
2022-10-09T07:11:43.836Z,11.70
2022-10-09T07:14:15.755Z,13.10
2022-10-09T07:16:47.217Z,14.50
2022-10-09T07:19:17.590Z,16.00
2022-10-09T07:21:47.870Z,17.30
2022-10-09T07:24:16.271Z,18.50
2022-10-09T07:26:46.860Z,19.40
2022-10-09T07:29:18.039Z,20.20
2022-10-09T07:31:47.614Z,20.80
2022-10-09T07:34:15.647Z,21.60
2022-10-09T07:36:43.722Z,21.90
2022-10-09T07:39:11.759Z,22.50
2022-10-09T07:41:39.792Z,23.00
2022-10-09T07:44:07.813Z,23.70
2022-10-09T07:46:35.957Z,24.00
2022-10-09T07:49:05.941Z,24.60
2022-10-09T07:51:34.390Z,24.60
2022-10-09T07:54:02.832Z,24.60
2022-10-09T07:56:33.074Z,24.30
2022-10-09T07:59:04.309Z,24.20
2022-10-09T08:01:35.076Z,23.80
2022-10-09T08:04:05.494Z,24.30
2022-10-09T08:06:34.429Z,25.10
2022-10-09T08:09:05.126Z,25.70
2022-10-09T08:11:33.546Z,26.10
2022-10-09T08:14:01.711Z,25.80
2022-10-09T08:16:29.997Z,26.20
2022-10-09T08:19:01.229Z,26.80
2022-10-09T08:21:32.768Z,27.30
2022-10-09T08:24:01.647Z,27.80
2022-10-09T08:26:31.880Z,28.10
2022-10-09T08:29:02.639Z,28.40
2022-10-09T08:31:31.687Z,28.60
2022-10-09T08:34:02.663Z,29.20
2022-10-09T08:36:32.335Z,29.50
2022-10-09T08:39:00.413Z,29.70
2022-10-09T08:41:43.457Z,28.90
2022-10-09T08:44:21.453Z,27.70
2022-10-09T08:47:05.187Z,27.00
2022-10-09T08:49:43.741Z,26.70
2022-10-09T08:52:29.293Z,26.40
2022-10-09T08:55:05.055Z,26.60
2022-10-09T08:57:36.177Z,27.20
2022-10-09T09:00:10.956Z,28.20
2022-10-09T09:03:15.106Z,29.20
2022-10-09T09:05:51.330Z,29.40
2022-10-09T09:08:31.378Z,30.10
2022-10-09T09:11:20.631Z,30.80
2022-10-09T09:14:03.220Z,31.00
2022-10-09T09:16:42.554Z,30.60
2022-10-09T09:19:39.422Z,30.30
2022-10-09T09:22:13.394Z,30.50
2022-10-09T09:24:49.142Z,30.20
2022-10-09T09:27:21.916Z,30.40
2022-10-09T09:29:56.930Z,30.10
2022-10-09T09:32:29.155Z,30.40
2022-10-09T09:35:12.947Z,30.50
2022-10-09T09:37:40.951Z,30.50
2022-10-09T09:40:36.578Z,30.50
2022-10-09T09:43:14.302Z,30.90
2022-10-09T09:45:43.749Z,31.00
2022-10-09T09:48:16.871Z,31.80
2022-10-09T09:50:53.050Z,32.00
2022-10-09T09:53:32.400Z,32.20
2022-10-09T09:56:02.422Z,31.30
2022-10-09T09:58:38.775Z,31.30
2022-10-09T10:01:08.349Z,32.00
2022-10-09T10:03:37.373Z,32.00
2022-10-09T10:06:06.259Z,31.90
2022-10-09T10:08:35.528Z,32.00
2022-10-09T10:11:08.445Z,32.00
2022-10-09T10:13:40.578Z,31.10
2022-10-09T10:16:09.556Z,30.80
2022-10-09T10:18:43.110Z,30.90
2022-10-09T10:21:14.315Z,31.30
2022-10-09T10:23:45.783Z,32.20
2022-10-09T10:26:25.625Z,33.10
2022-10-09T10:28:58.755Z,32.90
2022-10-09T10:31:45.977Z,33.00
2022-10-09T10:34:22.340Z,32.80
2022-10-09T10:37:10.669Z,32.10
2022-10-09T10:39:44.863Z,32.20
2022-10-09T10:42:22.761Z,32.60
2022-10-09T10:44:59.443Z,33.30
2022-10-09T10:47:31.866Z,33.60
2022-10-09T10:49:59.903Z,33.80
2022-10-09T10:52:41.345Z,34.10
2022-10-09T10:55:26.763Z,33.90
2022-10-09T10:58:07.823Z,33.20
2022-10-09T11:00:40.405Z,33.00
2022-10-09T11:03:29.788Z,33.50
2022-10-09T11:06:07.017Z,33.70
2022-10-09T11:08:49.252Z,33.60
2022-10-09T11:11:23.712Z,33.60
2022-10-09T11:14:05.392Z,33.80
2022-10-09T11:16:54.208Z,34.00
2022-10-09T11:19:46.592Z,34.10
2022-10-09T11:22:37.841Z,33.80
2022-10-09T11:25:37.162Z,33.40
2022-10-09T11:28:11.796Z,32.50
2022-10-09T11:30:48.357Z,31.50
2022-10-09T11:33:30.571Z,30.50
2022-10-09T11:36:04.623Z,30.00
2022-10-09T11:38:39.112Z,30.60
2022-10-09T11:41:08.166Z,30.60
2022-10-09T11:44:02.350Z,30.40
2022-10-09T11:46:43.201Z,29.00
2022-10-09T11:49:23.858Z,27.40
2022-10-09T11:51:58.023Z,26.00
2022-10-09T11:54:27.467Z,24.70
2022-10-09T11:56:58.262Z,23.60
2022-10-09T11:59:30.532Z,22.60
2022-10-09T12:02:02.879Z,21.90
2022-10-09T12:07:33.443Z,20.70
2022-10-09T12:10:06.738Z,20.30
2022-10-09T12:12:37.719Z,20.10
2022-10-09T12:15:25.576Z,19.80
2022-10-09T12:17:55.136Z,19.70
2022-10-09T12:20:26.442Z,20.00
2022-10-09T12:23:25.130Z,20.40
2022-10-09T12:25:50.531Z,21.40
2022-10-09T12:28:30.421Z,23.00
2022-10-09T12:31:01.643Z,23.90
2022-10-09T12:33:38.277Z,24.30
2022-10-09T12:36:13.071Z,24.30
2022-10-09T12:38:41.915Z,24.00
2022-10-09T12:41:20.825Z,24.20
2022-10-09T12:43:51.239Z,24.20
2022-10-09T12:46:30.896Z,23.80
2022-10-09T12:49:02.450Z,23.30
2022-10-09T12:51:33.495Z,22.10
2022-10-09T12:54:10.201Z,21.10
2022-10-09T12:56:40.959Z,20.50
2022-10-09T12:59:14.293Z,20.00
2022-10-09T13:01:44.515Z,19.60
2022-10-09T13:04:29.973Z,19.30
2022-10-09T13:06:59.344Z,19.00
2022-10-09T13:09:34.112Z,18.80
2022-10-09T13:12:08.716Z,18.50
2022-10-09T13:14:43.088Z,18.50
2022-10-09T13:17:25.914Z,18.30
2022-10-09T13:19:59.025Z,18.30
2022-10-09T13:22:31.096Z,18.20
2022-10-09T13:25:03.770Z,18.10
2022-10-09T13:27:35.394Z,18.10
2022-10-09T13:30:03.869Z,18.00
2022-10-09T13:32:32.447Z,18.00
2022-10-09T13:35:01.810Z,18.10
2022-10-09T13:37:29.838Z,17.90
2022-10-09T13:40:00.758Z,17.90
2022-10-09T13:42:33.966Z,18.00
2022-10-09T13:45:01.922Z,18.20
2022-10-09T13:47:30.167Z,18.10
2022-10-09T13:49:58.146Z,18.10
2022-10-09T13:52:27.464Z,18.00
2022-10-09T13:54:55.661Z,17.90
2022-10-09T13:57:23.608Z,17.80
2022-10-09T13:59:51.579Z,17.90
2022-10-09T14:02:20.343Z,17.90
2022-10-09T14:04:48.321Z,17.90
2022-10-09T14:07:16.281Z,18.00
2022-10-09T14:09:45.916Z,18.00
2022-10-09T14:12:14.054Z,18.00
2022-10-09T14:14:42.049Z,18.00
2022-10-09T14:17:10.077Z,17.90
2022-10-09T14:19:38.524Z,17.80
2022-10-09T14:22:06.524Z,17.80
2022-10-09T14:24:35.177Z,17.70
2022-10-09T14:27:04.823Z,17.70
2022-10-09T14:29:33.069Z,17.70
2022-10-09T14:32:01.269Z,17.80
2022-10-09T14:34:29.637Z,17.80
2022-10-09T14:36:57.648Z,17.80
2022-10-09T14:39:25.759Z,17.70
2022-10-09T14:41:53.780Z,17.60
2022-10-09T14:44:23.136Z,17.50
2022-10-09T14:46:52.530Z,17.60
2022-10-09T14:49:21.541Z,17.60
2022-10-09T14:51:49.852Z,17.50
2022-10-09T14:54:17.899Z,17.30
2022-10-09T14:56:45.846Z,17.20
2022-10-09T14:59:14.289Z,17.30
2022-10-09T15:01:44.236Z,17.30
2022-10-09T15:04:14.341Z,17.30
2022-10-09T15:06:43.438Z,17.20
2022-10-09T15:09:12.094Z,17.10
2022-10-09T15:11:40.161Z,17.00
2022-10-09T15:14:08.679Z,17.10
2022-10-09T15:16:36.934Z,17.00
2022-10-09T15:19:07.493Z,17.00
2022-10-09T15:21:37.599Z,17.00
2022-10-09T15:24:07.035Z,17.00
2022-10-09T15:26:39.617Z,16.90
2022-10-09T15:29:09.542Z,16.90
2022-10-09T15:31:39.955Z,16.90
2022-10-09T15:34:12.344Z,16.80
2022-10-09T15:36:43.033Z,16.80
2022-10-09T15:39:11.053Z,16.80
2022-10-09T15:41:41.911Z,16.70
2022-10-09T15:44:16.265Z,16.70
2022-10-09T15:46:44.921Z,16.60
2022-10-09T15:49:14.413Z,16.70
2022-10-09T15:51:42.608Z,16.70
2022-10-09T15:54:12.880Z,16.50
2022-10-09T15:56:41.356Z,16.40
2022-10-09T15:59:13.541Z,16.40
2022-10-09T16:01:41.604Z,16.30
2022-10-09T16:04:10.125Z,16.20
2022-10-09T16:06:39.460Z,16.20
2022-10-09T16:09:07.483Z,16.00
2022-10-09T16:11:35.542Z,15.90
2022-10-09T16:14:04.543Z,15.60
2022-10-09T16:16:32.678Z,15.60
2022-10-09T16:19:04.662Z,15.50
2022-10-09T16:21:33.338Z,15.40
2022-10-09T16:24:02.849Z,15.30
2022-10-09T16:26:31.218Z,15.20
2022-10-09T16:29:01.323Z,15.00
2022-10-09T16:31:34.636Z,14.90
2022-10-09T16:34:04.023Z,14.80
2022-10-09T16:36:32.483Z,14.60
2022-10-09T16:39:02.020Z,14.60
2022-10-09T16:41:31.958Z,14.50
2022-10-09T16:44:02.685Z,14.30
2022-10-09T16:49:07.088Z,14.20
2022-10-09T16:51:36.858Z,14.10
2022-10-09T16:54:09.632Z,14.00
2022-10-09T16:56:41.462Z,13.90
2022-10-09T16:59:13.079Z,13.80
2022-10-09T17:01:45.028Z,13.70
2022-10-09T17:04:14.387Z,13.70
2022-10-09T17:06:43.768Z,13.60
2022-10-09T17:09:14.527Z,13.40
2022-10-09T17:11:43.135Z,13.20
2022-10-09T17:14:11.476Z,13.30
2022-10-09T17:16:42.236Z,13.30
2022-10-09T17:19:10.428Z,13.20
2022-10-09T17:21:38.965Z,13.10
2022-10-09T17:24:07.623Z,13.00
2022-10-09T17:26:37.361Z,12.80
2022-10-09T17:29:05.654Z,12.80
2022-10-09T17:31:34.324Z,12.70
2022-10-09T17:34:04.509Z,12.60
2022-10-09T17:36:35.462Z,12.50
2022-10-09T17:39:04.199Z,12.50
2022-10-09T17:41:32.974Z,12.50
2022-10-09T17:44:02.557Z,12.40
2022-10-09T17:46:31.415Z,12.30
2022-10-09T17:49:00.992Z,12.30
2022-10-09T17:51:31.906Z,12.30
2022-10-09T17:54:03.311Z,12.20
2022-10-09T17:56:33.316Z,12.20
2022-10-09T17:59:03.199Z,12.20
2022-10-09T18:01:31.814Z,12.10
2022-10-09T18:04:00.658Z,12.00
2022-10-09T18:06:31.740Z,12.00
2022-10-09T18:08:59.741Z,12.00
2022-10-09T18:11:29.866Z,11.90
2022-10-09T18:13:59.025Z,11.90
2022-10-09T18:16:35.968Z,11.80
2022-10-09T18:19:07.580Z,11.80
2022-10-09T18:21:36.032Z,11.80
2022-10-09T18:24:04.272Z,11.80
2022-10-09T18:26:32.493Z,11.80
2022-10-09T18:29:01.535Z,11.80
2022-10-09T18:31:31.355Z,11.70
2022-10-09T18:34:00.654Z,11.60
2022-10-09T18:36:33.513Z,11.50
2022-10-09T18:39:04.926Z,11.50
2022-10-09T18:41:33.592Z,11.30
2022-10-09T18:44:02.615Z,11.20
2022-10-09T18:46:37.695Z,11.20
2022-10-09T18:49:09.503Z,11.10
2022-10-09T18:51:39.284Z,11.10
2022-10-09T18:54:08.221Z,11.20
2022-10-09T18:56:37.613Z,11.20
2022-10-09T18:59:10.668Z,11.30
2022-10-09T19:01:40.065Z,11.30
2022-10-09T19:04:08.213Z,11.30
2022-10-09T19:06:36.865Z,11.20
2022-10-09T19:09:05.690Z,11.20
2022-10-09T19:11:35.355Z,11.20
2022-10-09T19:14:03.705Z,11.10
2022-10-09T19:16:34.805Z,11.10
2022-10-09T19:19:04.460Z,11.20
2022-10-09T19:21:36.315Z,11.10
2022-10-09T19:24:06.126Z,11.00
2022-10-09T19:26:35.549Z,11.00
2022-10-09T19:29:05.010Z,11.10
2022-10-09T19:31:33.809Z,11.00
2022-10-09T19:34:05.300Z,11.00
2022-10-09T19:36:39.631Z,10.90
2022-10-09T19:39:14.926Z,10.90
2022-10-09T19:41:51.138Z,11.00
2022-10-09T19:44:24.623Z,11.00
2022-10-09T19:46:55.850Z,10.90
2022-10-09T19:49:25.203Z,10.90
2022-10-09T19:51:53.226Z,10.90
2022-10-09T19:54:21.239Z,10.90
2022-10-09T19:56:49.232Z,10.90
2022-10-09T19:59:17.299Z,10.90
2022-10-09T20:01:45.303Z,10.90
2022-10-09T20:04:14.540Z,10.90
2022-10-09T20:06:44.162Z,10.90
2022-10-09T20:09:13.582Z,10.80
2022-10-09T20:11:42.356Z,10.80
2022-10-09T20:14:10.835Z,10.70
2022-10-09T20:16:38.984Z,10.70
2022-10-09T20:19:07.308Z,10.70
2022-10-09T20:21:36.118Z,10.80
2022-10-09T20:24:06.234Z,10.70
2022-10-09T20:26:35.517Z,10.70
2022-10-09T20:29:07.489Z,10.70
2022-10-09T20:31:35.542Z,10.70
2022-10-09T20:34:03.649Z,10.70
2022-10-09T20:36:35.161Z,10.60
2022-10-09T20:39:08.004Z,10.60
2022-10-09T20:41:36.817Z,10.60
2022-10-09T20:44:06.105Z,10.50
2022-10-09T20:46:37.061Z,10.40
2022-10-09T20:49:07.903Z,10.40
2022-10-09T20:51:36.599Z,10.40
2022-10-09T20:54:07.450Z,10.40
2022-10-09T20:56:36.700Z,10.40
2022-10-09T20:59:05.031Z,10.40
2022-10-09T21:01:33.674Z,10.40
2022-10-09T21:04:02.952Z,10.40
2022-10-09T21:06:32.991Z,10.40
2022-10-09T21:09:01.363Z,10.30
2022-10-09T21:11:32.275Z,10.30
2022-10-09T21:14:00.286Z,10.20
2022-10-09T21:16:28.462Z,10.20
2022-10-09T21:18:58.855Z,10.20
2022-10-09T21:21:28.552Z,10.20
2022-10-09T21:23:58.741Z,10.20
2022-10-09T21:26:27.926Z,10.20
2022-10-09T21:28:59.879Z,10.10
2022-10-09T21:31:30.851Z,10.10
2022-10-09T21:34:00.908Z,10.10
2022-10-09T21:36:36.878Z,10.10
2022-10-09T21:39:07.621Z,10.00
2022-10-09T21:41:37.005Z,10.00
2022-10-09T21:44:07.791Z,10.00
2022-10-09T21:46:38.095Z,9.90
2022-10-09T21:49:07.721Z,9.90
2022-10-09T21:51:35.895Z,10.00
2022-10-09T21:54:03.887Z,10.00
2022-10-09T21:56:31.835Z,9.90
2022-10-09T21:59:00.221Z,9.80
2022-10-09T22:01:29.579Z,9.80
2022-10-09T22:03:57.831Z,9.80
2022-10-09T22:06:26.028Z,9.80
2022-10-09T22:08:54.175Z,9.80
2022-10-09T22:11:22.152Z,9.80
2022-10-09T22:13:50.175Z,9.70
2022-10-09T22:16:18.387Z,9.70
2022-10-09T22:18:47.712Z,9.60
2022-10-09T22:21:18.926Z,9.70
2022-10-09T22:23:47.105Z,9.60
2022-10-09T22:26:18.063Z,9.70
2022-10-09T22:28:47.060Z,9.60
2022-10-09T22:31:17.713Z,9.60
2022-10-09T22:33:51.059Z,9.60
2022-10-09T22:36:21.712Z,9.50
2022-10-09T22:38:49.856Z,9.50
2022-10-09T22:41:22.974Z,9.40
2022-10-09T22:43:54.205Z,9.40
2022-10-09T22:46:24.987Z,9.40
2022-10-09T22:48:55.242Z,9.30
2022-10-09T22:51:25.506Z,9.40
2022-10-09T22:53:53.647Z,9.30
2022-10-09T22:56:25.203Z,9.30
2022-10-09T22:58:54.383Z,9.30
2022-10-09T23:01:29.912Z,9.30
2022-10-09T23:04:00.253Z,9.30
2022-10-09T23:06:28.652Z,9.30
2022-10-09T23:08:57.693Z,9.20
2022-10-09T23:11:26.980Z,9.20
2022-10-09T23:13:56.845Z,9.20
2022-10-09T23:16:26.248Z,9.20
2022-10-09T23:18:54.336Z,9.20
2022-10-09T23:21:25.039Z,9.20
2022-10-09T23:23:53.264Z,9.10
2022-10-09T23:26:23.954Z,9.20
2022-10-09T23:28:53.959Z,9.10
2022-10-09T23:31:23.000Z,9.10
2022-10-09T23:33:50.984Z,9.00
2022-10-09T23:36:21.945Z,9.00
2022-10-09T23:38:51.482Z,9.00
2022-10-09T23:41:22.078Z,9.00
2022-10-09T23:43:51.187Z,8.90
2022-10-09T23:46:22.110Z,8.90
2022-10-09T23:48:52.089Z,8.90
2022-10-09T23:51:21.958Z,8.80
2022-10-09T23:53:51.766Z,8.90
2022-10-09T23:56:23.679Z,8.80
2022-10-09T23:58:52.636Z,8.80
